sensor_id;sensor_type;location;lat;lon;timestamp;temperature;humidity
36450;DHT22;22475;51.390;7.180;2022-07-23T00:00:11;21.10;91.90
36450;DHT22;22475;51.390;7.180;2022-07-23T00:02:38;21.10;91.90
36450;DHT22;22475;51.390;7.180;2022-07-23T00:05:05;21.10;92.00
36450;DHT22;22475;51.390;7.180;2022-07-23T00:07:32;21.10;92.00
36450;DHT22;22475;51.390;7.180;2022-07-23T00:10:00;21.10;92.00
36450;DHT22;22475;51.390;7.180;2022-07-23T00:12:27;21.10;92.00
36450;DHT22;22475;51.390;7.180;2022-07-23T00:14:54;21.10;92.00
36450;DHT22;22475;51.390;7.180;2022-07-23T00:17:20;21.10;92.00
36450;DHT22;22475;51.390;7.180;2022-07-23T00:19:47;21.10;92.00
36450;DHT22;22475;51.390;7.180;2022-07-23T00:22:14;21.10;92.00
36450;DHT22;22475;51.390;7.180;2022-07-23T00:24:41;21.10;92.00
36450;DHT22;22475;51.390;7.180;2022-07-23T00:27:09;21.10;92.00
36450;DHT22;22475;51.390;7.180;2022-07-23T00:29:36;21.10;92.00
36450;DHT22;22475;51.390;7.180;2022-07-23T00:32:04;21.10;92.00
36450;DHT22;22475;51.390;7.180;2022-07-23T00:34:30;21.10;92.00
36450;DHT22;22475;51.390;7.180;2022-07-23T00:36:57;21.10;92.00
36450;DHT22;22475;51.390;7.180;2022-07-23T00:39:24;21.10;92.00
36450;DHT22;22475;51.390;7.180;2022-07-23T00:41:51;21.10;92.00
36450;DHT22;22475;51.390;7.180;2022-07-23T00:44:22;21.10;92.00
36450;DHT22;22475;51.390;7.180;2022-07-23T00:46:51;21.10;92.10
36450;DHT22;22475;51.390;7.180;2022-07-23T00:49:19;21.10;92.00
36450;DHT22;22475;51.390;7.180;2022-07-23T00:51:47;21.00;92.00
36450;DHT22;22475;51.390;7.180;2022-07-23T00:54:14;21.10;92.00
36450;DHT22;22475;51.390;7.180;2022-07-23T00:56:42;21.10;92.00
36450;DHT22;22475;51.390;7.180;2022-07-23T00:59:09;21.10;92.10
36450;DHT22;22475;51.390;7.180;2022-07-23T01:01:38;21.00;92.00
36450;DHT22;22475;51.390;7.180;2022-07-23T01:04:05;21.10;92.10
36450;DHT22;22475;51.390;7.180;2022-07-23T01:06:34;21.00;92.10
36450;DHT22;22475;51.390;7.180;2022-07-23T01:09:03;21.10;92.10
36450;DHT22;22475;51.390;7.180;2022-07-23T01:11:32;21.10;92.10
36450;DHT22;22475;51.390;7.180;2022-07-23T01:13:59;21.00;92.10
36450;DHT22;22475;51.390;7.180;2022-07-23T01:16:26;21.10;92.10
36450;DHT22;22475;51.390;7.180;2022-07-23T01:18:54;21.10;92.10
36450;DHT22;22475;51.390;7.180;2022-07-23T01:21:21;21.00;92.10
36450;DHT22;22475;51.390;7.180;2022-07-23T01:23:49;21.00;92.20
36450;DHT22;22475;51.390;7.180;2022-07-23T01:26:16;21.00;92.20
36450;DHT22;22475;51.390;7.180;2022-07-23T01:28:43;21.00;92.20
36450;DHT22;22475;51.390;7.180;2022-07-23T01:31:10;21.00;92.20
36450;DHT22;22475;51.390;7.180;2022-07-23T01:33:37;21.00;92.20
36450;DHT22;22475;51.390;7.180;2022-07-23T01:36:05;21.00;92.20
36450;DHT22;22475;51.390;7.180;2022-07-23T01:38:32;21.00;92.20
36450;DHT22;22475;51.390;7.180;2022-07-23T01:41:00;21.00;92.20
36450;DHT22;22475;51.390;7.180;2022-07-23T01:43:27;21.00;92.30
36450;DHT22;22475;51.390;7.180;2022-07-23T01:45:54;21.00;92.30
36450;DHT22;22475;51.390;7.180;2022-07-23T01:48:21;21.00;92.30
36450;DHT22;22475;51.390;7.180;2022-07-23T01:50:48;21.00;92.30
36450;DHT22;22475;51.390;7.180;2022-07-23T01:53:15;21.00;92.30
36450;DHT22;22475;51.390;7.180;2022-07-23T01:55:42;21.00;92.30
36450;DHT22;22475;51.390;7.180;2022-07-23T01:58:11;21.00;92.20
36450;DHT22;22475;51.390;7.180;2022-07-23T02:00:38;21.00;92.20
36450;DHT22;22475;51.390;7.180;2022-07-23T02:03:05;21.00;92.20
36450;DHT22;22475;51.390;7.180;2022-07-23T02:05:32;21.00;92.20
36450;DHT22;22475;51.390;7.180;2022-07-23T02:07:59;21.00;92.30
36450;DHT22;22475;51.390;7.180;2022-07-23T02:10:26;21.00;92.30
36450;DHT22;22475;51.390;7.180;2022-07-23T02:12:54;21.00;92.30
36450;DHT22;22475;51.390;7.180;2022-07-23T02:15:22;21.00;92.30
36450;DHT22;22475;51.390;7.180;2022-07-23T02:17:49;21.00;92.30
36450;DHT22;22475;51.390;7.180;2022-07-23T02:20:16;21.00;92.30
36450;DHT22;22475;51.390;7.180;2022-07-23T02:22:43;21.00;92.30
36450;DHT22;22475;51.390;7.180;2022-07-23T02:25:10;21.00;92.70
36450;DHT22;22475;51.390;7.180;2022-07-23T02:27:36;21.00;92.30
36450;DHT22;22475;51.390;7.180;2022-07-23T02:30:05;21.00;92.30
36450;DHT22;22475;51.390;7.180;2022-07-23T02:32:33;21.00;92.40
36450;DHT22;22475;51.390;7.180;2022-07-23T02:35:00;21.00;92.30
36450;DHT22;22475;51.390;7.180;2022-07-23T02:37:27;21.00;92.70
36450;DHT22;22475;51.390;7.180;2022-07-23T02:39:54;21.00;92.30
36450;DHT22;22475;51.390;7.180;2022-07-23T02:42:21;21.00;92.30
36450;DHT22;22475;51.390;7.180;2022-07-23T02:44:49;21.00;92.30
36450;DHT22;22475;51.390;7.180;2022-07-23T02:47:16;21.00;92.30
36450;DHT22;22475;51.390;7.180;2022-07-23T02:49:44;21.00;92.30
36450;DHT22;22475;51.390;7.180;2022-07-23T02:52:11;21.00;92.40
36450;DHT22;22475;51.390;7.180;2022-07-23T02:54:38;21.00;92.30
36450;DHT22;22475;51.390;7.180;2022-07-23T02:57:05;21.00;92.30
36450;DHT22;22475;51.390;7.180;2022-07-23T02:59:32;21.00;92.40
36450;DHT22;22475;51.390;7.180;2022-07-23T03:01:59;21.00;92.40
36450;DHT22;22475;51.390;7.180;2022-07-23T03:04:26;21.00;92.30
36450;DHT22;22475;51.390;7.180;2022-07-23T03:06:54;21.00;92.30
36450;DHT22;22475;51.390;7.180;2022-07-23T03:09:21;21.00;92.40
36450;DHT22;22475;51.390;7.180;2022-07-23T03:11:48;21.00;92.40
36450;DHT22;22475;51.390;7.180;2022-07-23T03:14:14;21.00;92.40
36450;DHT22;22475;51.390;7.180;2022-07-23T03:16:42;21.00;92.30
36450;DHT22;22475;51.390;7.180;2022-07-23T03:19:08;21.00;92.40
36450;DHT22;22475;51.390;7.180;2022-07-23T03:21:35;21.00;92.40
36450;DHT22;22475;51.390;7.180;2022-07-23T03:24:07;21.00;92.40
36450;DHT22;22475;51.390;7.180;2022-07-23T03:26:34;21.00;92.40
36450;DHT22;22475;51.390;7.180;2022-07-23T03:29:02;21.00;92.40
36450;DHT22;22475;51.390;7.180;2022-07-23T03:31:29;21.00;92.40
36450;DHT22;22475;51.390;7.180;2022-07-23T03:33:57;20.90;92.40
36450;DHT22;22475;51.390;7.180;2022-07-23T03:36:24;20.90;92.40
36450;DHT22;22475;51.390;7.180;2022-07-23T03:38:51;21.00;92.40
36450;DHT22;22475;51.390;7.180;2022-07-23T03:41:19;21.00;92.40
36450;DHT22;22475;51.390;7.180;2022-07-23T03:43:47;20.90;92.40
36450;DHT22;22475;51.390;7.180;2022-07-23T03:46:14;21.00;92.40
36450;DHT22;22475;51.390;7.180;2022-07-23T03:48:41;21.00;92.40
36450;DHT22;22475;51.390;7.180;2022-07-23T03:51:07;20.90;92.40
36450;DHT22;22475;51.390;7.180;2022-07-23T03:53:34;21.00;92.40
36450;DHT22;22475;51.390;7.180;2022-07-23T03:56:01;20.90;92.40
36450;DHT22;22475;51.390;7.180;2022-07-23T03:58:29;21.00;92.40
36450;DHT22;22475;51.390;7.180;2022-07-23T04:00:56;20.90;92.40
36450;DHT22;22475;51.390;7.180;2022-07-23T04:03:23;20.90;92.70
36450;DHT22;22475;51.390;7.180;2022-07-23T04:05:50;20.90;92.40
36450;DHT22;22475;51.390;7.180;2022-07-23T04:08:17;20.90;92.40
36450;DHT22;22475;51.390;7.180;2022-07-23T04:10:44;21.00;92.80
36450;DHT22;22475;51.390;7.180;2022-07-23T04:13:11;20.90;92.40
36450;DHT22;22475;51.390;7.180;2022-07-23T04:15:39;21.00;92.50
36450;DHT22;22475;51.390;7.180;2022-07-23T04:18:06;20.90;92.50
36450;DHT22;22475;51.390;7.180;2022-07-23T04:20:33;20.90;92.50
36450;DHT22;22475;51.390;7.180;2022-07-23T04:23:00;20.90;92.50
36450;DHT22;22475;51.390;7.180;2022-07-23T04:25:27;20.90;92.50
36450;DHT22;22475;51.390;7.180;2022-07-23T04:27:54;20.90;92.50
36450;DHT22;22475;51.390;7.180;2022-07-23T04:30:21;20.90;92.50
36450;DHT22;22475;51.390;7.180;2022-07-23T04:32:49;20.90;92.50
36450;DHT22;22475;51.390;7.180;2022-07-23T04:35:16;20.90;92.50
36450;DHT22;22475;51.390;7.180;2022-07-23T04:37:43;20.90;92.60
36450;DHT22;22475;51.390;7.180;2022-07-23T04:40:11;20.90;92.50
36450;DHT22;22475;51.390;7.180;2022-07-23T04:42:38;20.90;92.60
36450;DHT22;22475;51.390;7.180;2022-07-23T04:45:06;20.90;92.60
36450;DHT22;22475;51.390;7.180;2022-07-23T04:47:33;20.90;92.60
36450;DHT22;22475;51.390;7.180;2022-07-23T04:50:01;20.90;92.60
36450;DHT22;22475;51.390;7.180;2022-07-23T04:52:28;20.90;92.60
36450;DHT22;22475;51.390;7.180;2022-07-23T04:54:55;20.90;92.60
36450;DHT22;22475;51.390;7.180;2022-07-23T04:57:21;20.90;92.60
36450;DHT22;22475;51.390;7.180;2022-07-23T04:59:48;20.90;92.60
36450;DHT22;22475;51.390;7.180;2022-07-23T05:02:15;20.90;92.60
36450;DHT22;22475;51.390;7.180;2022-07-23T05:04:42;20.90;92.60
36450;DHT22;22475;51.390;7.180;2022-07-23T05:07:10;20.90;92.60
36450;DHT22;22475;51.390;7.180;2022-07-23T05:09:37;20.90;92.50
36450;DHT22;22475;51.390;7.180;2022-07-23T05:12:04;20.90;92.50
36450;DHT22;22475;51.390;7.180;2022-07-23T05:14:31;20.90;92.50
36450;DHT22;22475;51.390;7.180;2022-07-23T05:16:58;20.90;92.50
36450;DHT22;22475;51.390;7.180;2022-07-23T05:19:25;20.90;92.50
36450;DHT22;22475;51.390;7.180;2022-07-23T05:21:52;20.90;92.50
36450;DHT22;22475;51.390;7.180;2022-07-23T05:24:20;20.90;92.50
36450;DHT22;22475;51.390;7.180;2022-07-23T05:26:47;20.80;92.80
36450;DHT22;22475;51.390;7.180;2022-07-23T05:29:14;20.80;92.40
36450;DHT22;22475;51.390;7.180;2022-07-23T05:31:41;20.80;92.50
36450;DHT22;22475;51.390;7.180;2022-07-23T05:34:08;20.90;92.50
36450;DHT22;22475;51.390;7.180;2022-07-23T05:36:35;20.90;92.50
36450;DHT22;22475;51.390;7.180;2022-07-23T05:39:02;20.80;92.50
36450;DHT22;22475;51.390;7.180;2022-07-23T05:41:31;20.80;92.50
36450;DHT22;22475;51.390;7.180;2022-07-23T05:43:58;20.80;92.50
36450;DHT22;22475;51.390;7.180;2022-07-23T05:46:25;20.90;92.60
36450;DHT22;22475;51.390;7.180;2022-07-23T05:48:52;20.80;92.60
36450;DHT22;22475;51.390;7.180;2022-07-23T05:51:20;20.80;92.60
36450;DHT22;22475;51.390;7.180;2022-07-23T05:53:47;20.80;92.70
36450;DHT22;22475;51.390;7.180;2022-07-23T05:56:14;20.90;92.70
36450;DHT22;22475;51.390;7.180;2022-07-23T05:58:43;20.90;92.70
36450;DHT22;22475;51.390;7.180;2022-07-23T06:01:10;20.90;92.70
36450;DHT22;22475;51.390;7.180;2022-07-23T06:03:38;20.90;92.70
36450;DHT22;22475;51.390;7.180;2022-07-23T06:06:05;20.90;92.70
36450;DHT22;22475;51.390;7.180;2022-07-23T06:08:33;20.90;92.70
36450;DHT22;22475;51.390;7.180;2022-07-23T06:11:00;20.80;92.70
36450;DHT22;22475;51.390;7.180;2022-07-23T06:13:27;20.90;92.70
36450;DHT22;22475;51.390;7.180;2022-07-23T06:15:56;20.90;92.70
36450;DHT22;22475;51.390;7.180;2022-07-23T06:18:23;20.90;92.70
36450;DHT22;22475;51.390;7.180;2022-07-23T06:20:50;20.80;92.60
36450;DHT22;22475;51.390;7.180;2022-07-23T06:23:17;20.80;92.60
36450;DHT22;22475;51.390;7.180;2022-07-23T06:25:44;20.90;92.70
36450;DHT22;22475;51.390;7.180;2022-07-23T06:28:11;20.80;92.60
36450;DHT22;22475;51.390;7.180;2022-07-23T06:30:38;20.80;92.70
36450;DHT22;22475;51.390;7.180;2022-07-23T06:33:06;20.80;92.70
36450;DHT22;22475;51.390;7.180;2022-07-23T06:35:34;20.90;92.70
36450;DHT22;22475;51.390;7.180;2022-07-23T06:38:01;20.90;92.70
36450;DHT22;22475;51.390;7.180;2022-07-23T06:40:31;20.80;92.70
36450;DHT22;22475;51.390;7.180;2022-07-23T06:42:57;20.80;92.70
36450;DHT22;22475;51.390;7.180;2022-07-23T06:45:25;20.90;92.70
36450;DHT22;22475;51.390;7.180;2022-07-23T06:47:52;20.90;92.70
36450;DHT22;22475;51.390;7.180;2022-07-23T06:50:20;20.90;92.70
36450;DHT22;22475;51.390;7.180;2022-07-23T06:52:47;20.80;92.70
36450;DHT22;22475;51.390;7.180;2022-07-23T06:55:14;20.90;92.70
36450;DHT22;22475;51.390;7.180;2022-07-23T06:57:41;20.80;92.60
36450;DHT22;22475;51.390;7.180;2022-07-23T07:00:09;20.80;92.60
36450;DHT22;22475;51.390;7.180;2022-07-23T07:02:36;20.80;92.60
36450;DHT22;22475;51.390;7.180;2022-07-23T07:05:04;20.80;92.50
36450;DHT22;22475;51.390;7.180;2022-07-23T07:07:33;20.80;92.50
36450;DHT22;22475;51.390;7.180;2022-07-23T07:09:59;20.80;92.50
36450;DHT22;22475;51.390;7.180;2022-07-23T07:12:26;20.90;92.60
36450;DHT22;22475;51.390;7.180;2022-07-23T07:14:53;20.80;92.50
36450;DHT22;22475;51.390;7.180;2022-07-23T07:17:20;20.80;92.50
36450;DHT22;22475;51.390;7.180;2022-07-23T07:19:47;20.90;92.60
36450;DHT22;22475;51.390;7.180;2022-07-23T07:22:14;20.80;92.50
36450;DHT22;22475;51.390;7.180;2022-07-23T07:24:42;20.90;92.60
36450;DHT22;22475;51.390;7.180;2022-07-23T07:27:09;20.80;92.50
36450;DHT22;22475;51.390;7.180;2022-07-23T07:29:36;20.80;92.60
36450;DHT22;22475;51.390;7.180;2022-07-23T07:32:04;20.90;92.60
36450;DHT22;22475;51.390;7.180;2022-07-23T07:34:31;20.90;92.60
36450;DHT22;22475;51.390;7.180;2022-07-23T07:36:57;20.90;92.60
36450;DHT22;22475;51.390;7.180;2022-07-23T07:39:24;20.80;92.60
36450;DHT22;22475;51.390;7.180;2022-07-23T07:41:53;20.80;92.60
36450;DHT22;22475;51.390;7.180;2022-07-23T07:44:19;20.80;92.60
36450;DHT22;22475;51.390;7.180;2022-07-23T07:46:46;20.90;92.70
36450;DHT22;22475;51.390;7.180;2022-07-23T07:49:13;20.90;92.70
36450;DHT22;22475;51.390;7.180;2022-07-23T07:51:42;20.90;92.70
36450;DHT22;22475;51.390;7.180;2022-07-23T07:54:09;20.90;92.70
36450;DHT22;22475;51.390;7.180;2022-07-23T07:56:36;20.90;92.70
36450;DHT22;22475;51.390;7.180;2022-07-23T07:59:04;20.90;92.70
36450;DHT22;22475;51.390;7.180;2022-07-23T08:01:31;20.90;92.70
36450;DHT22;22475;51.390;7.180;2022-07-23T08:03:58;20.90;92.70
36450;DHT22;22475;51.390;7.180;2022-07-23T08:06:25;20.90;92.70
36450;DHT22;22475;51.390;7.180;2022-07-23T08:08:52;20.90;92.80
36450;DHT22;22475;51.390;7.180;2022-07-23T08:11:19;20.90;92.80
36450;DHT22;22475;51.390;7.180;2022-07-23T08:13:46;20.90;92.80
36450;DHT22;22475;51.390;7.180;2022-07-23T08:16:14;20.90;92.80
36450;DHT22;22475;51.390;7.180;2022-07-23T08:18:41;20.90;92.80
36450;DHT22;22475;51.390;7.180;2022-07-23T08:21:08;20.90;92.80
36450;DHT22;22475;51.390;7.180;2022-07-23T08:23:35;20.90;92.80
36450;DHT22;22475;51.390;7.180;2022-07-23T08:26:02;20.90;92.70
36450;DHT22;22475;51.390;7.180;2022-07-23T08:28:29;20.90;92.70
36450;DHT22;22475;51.390;7.180;2022-07-23T08:30:59;20.90;92.70
36450;DHT22;22475;51.390;7.180;2022-07-23T08:33:27;20.90;92.70
36450;DHT22;22475;51.390;7.180;2022-07-23T08:35:54;20.90;92.70
36450;DHT22;22475;51.390;7.180;2022-07-23T08:38:22;20.90;92.70
36450;DHT22;22475;51.390;7.180;2022-07-23T08:40:52;20.90;92.70
36450;DHT22;22475;51.390;7.180;2022-07-23T08:43:21;20.90;92.70
36450;DHT22;22475;51.390;7.180;2022-07-23T08:45:49;20.90;92.70
36450;DHT22;22475;51.390;7.180;2022-07-23T08:48:17;20.90;92.70
36450;DHT22;22475;51.390;7.180;2022-07-23T08:50:47;20.90;92.70
36450;DHT22;22475;51.390;7.180;2022-07-23T08:53:15;20.90;92.70
36450;DHT22;22475;51.390;7.180;2022-07-23T08:55:43;20.90;92.60
36450;DHT22;22475;51.390;7.180;2022-07-23T08:58:13;20.90;92.50
36450;DHT22;22475;51.390;7.180;2022-07-23T09:00:40;20.90;92.50
36450;DHT22;22475;51.390;7.180;2022-07-23T09:03:07;20.90;92.50
36450;DHT22;22475;51.390;7.180;2022-07-23T09:05:34;20.90;92.50
36450;DHT22;22475;51.390;7.180;2022-07-23T09:08:07;20.90;92.50
36450;DHT22;22475;51.390;7.180;2022-07-23T09:10:44;20.90;92.40
36450;DHT22;22475;51.390;7.180;2022-07-23T09:13:27;20.90;92.20
36450;DHT22;22475;51.390;7.180;2022-07-23T09:15:56;20.90;92.10
36450;DHT22;22475;51.390;7.180;2022-07-23T09:18:44;20.90;92.10
36450;DHT22;22475;51.390;7.180;2022-07-23T09:21:17;20.90;92.00
36450;DHT22;22475;51.390;7.180;2022-07-23T09:23:48;20.90;91.80
36450;DHT22;22475;51.390;7.180;2022-07-23T09:26:22;20.90;91.70
36450;DHT22;22475;51.390;7.180;2022-07-23T09:28:52;20.90;91.70
36450;DHT22;22475;51.390;7.180;2022-07-23T09:31:20;20.90;91.70
36450;DHT22;22475;51.390;7.180;2022-07-23T09:33:47;20.90;91.50
36450;DHT22;22475;51.390;7.180;2022-07-23T09:36:14;20.90;91.50
36450;DHT22;22475;51.390;7.180;2022-07-23T09:38:49;20.90;91.60
36450;DHT22;22475;51.390;7.180;2022-07-23T09:41:17;20.90;91.50
36450;DHT22;22475;51.390;7.180;2022-07-23T09:43:44;20.90;91.40
36450;DHT22;22475;51.390;7.180;2022-07-23T09:46:18;20.90;91.20
36450;DHT22;22475;51.390;7.180;2022-07-23T09:48:46;20.90;91.00
36450;DHT22;22475;51.390;7.180;2022-07-23T09:51:13;20.90;91.10
36450;DHT22;22475;51.390;7.180;2022-07-23T09:53:41;20.90;91.10
36450;DHT22;22475;51.390;7.180;2022-07-23T09:56:12;20.90;90.90
36450;DHT22;22475;51.390;7.180;2022-07-23T09:58:40;20.90;90.80
36450;DHT22;22475;51.390;7.180;2022-07-23T10:01:15;20.90;90.90
36450;DHT22;22475;51.390;7.180;2022-07-23T10:03:42;20.90;90.90
36450;DHT22;22475;51.390;7.180;2022-07-23T10:06:10;20.90;90.90
36450;DHT22;22475;51.390;7.180;2022-07-23T10:08:40;20.90;90.80
36450;DHT22;22475;51.390;7.180;2022-07-23T10:11:10;21.00;90.80
36450;DHT22;22475;51.390;7.180;2022-07-23T10:13:38;21.00;90.70
36450;DHT22;22475;51.390;7.180;2022-07-23T10:16:20;20.90;90.70
36450;DHT22;22475;51.390;7.180;2022-07-23T10:18:47;21.00;90.70
36450;DHT22;22475;51.390;7.180;2022-07-23T10:21:21;20.90;90.60
36450;DHT22;22475;51.390;7.180;2022-07-23T10:24:01;20.90;90.70
36450;DHT22;22475;51.390;7.180;2022-07-23T10:26:36;20.90;90.90
36450;DHT22;22475;51.390;7.180;2022-07-23T10:29:20;20.90;91.00
36450;DHT22;22475;51.390;7.180;2022-07-23T10:31:54;20.90;91.10
36450;DHT22;22475;51.390;7.180;2022-07-23T10:34:33;20.90;91.20
36450;DHT22;22475;51.390;7.180;2022-07-23T10:37:11;20.90;91.20
36450;DHT22;22475;51.390;7.180;2022-07-23T10:39:40;20.90;91.20
36450;DHT22;22475;51.390;7.180;2022-07-23T10:42:10;21.00;91.20
36450;DHT22;22475;51.390;7.180;2022-07-23T10:44:39;20.90;91.60
36450;DHT22;22475;51.390;7.180;2022-07-23T10:47:08;21.00;91.30
36450;DHT22;22475;51.390;7.180;2022-07-23T10:50:17;21.00;91.40
36450;DHT22;22475;51.390;7.180;2022-07-23T10:53:08;20.90;91.80
36450;DHT22;22475;51.390;7.180;2022-07-23T10:55:43;20.90;91.30
36450;DHT22;22475;51.390;7.180;2022-07-23T10:58:18;21.00;91.10
36450;DHT22;22475;51.390;7.180;2022-07-23T11:00:45;21.00;91.00
36450;DHT22;22475;51.390;7.180;2022-07-23T11:03:33;20.90;91.00
36450;DHT22;22475;51.390;7.180;2022-07-23T11:06:02;20.90;91.20
36450;DHT22;22475;51.390;7.180;2022-07-23T11:08:30;20.90;91.30
36450;DHT22;22475;51.390;7.180;2022-07-23T11:11:09;20.90;91.30
36450;DHT22;22475;51.390;7.180;2022-07-23T11:13:48;21.00;91.50
36450;DHT22;22475;51.390;7.180;2022-07-23T11:16:23;21.00;91.60
36450;DHT22;22475;51.390;7.180;2022-07-23T11:19:05;20.90;91.60
36450;DHT22;22475;51.390;7.180;2022-07-23T11:21:49;21.00;91.70
36450;DHT22;22475;51.390;7.180;2022-07-23T11:24:21;21.00;91.80
36450;DHT22;22475;51.390;7.180;2022-07-23T11:26:54;21.00;91.80
36450;DHT22;22475;51.390;7.180;2022-07-23T11:29:45;21.00;91.80
36450;DHT22;22475;51.390;7.180;2022-07-23T11:32:36;20.90;91.80
36450;DHT22;22475;51.390;7.180;2022-07-23T11:35:22;21.00;91.80
36450;DHT22;22475;51.390;7.180;2022-07-23T11:37:49;21.00;91.80
36450;DHT22;22475;51.390;7.180;2022-07-23T11:40:19;21.00;91.90
36450;DHT22;22475;51.390;7.180;2022-07-23T11:42:58;21.00;91.90
36450;DHT22;22475;51.390;7.180;2022-07-23T11:45:32;21.00;92.00
36450;DHT22;22475;51.390;7.180;2022-07-23T11:47:59;21.00;92.00
36450;DHT22;22475;51.390;7.180;2022-07-23T11:50:26;21.00;92.00
36450;DHT22;22475;51.390;7.180;2022-07-23T11:52:56;21.00;92.10
36450;DHT22;22475;51.390;7.180;2022-07-23T11:55:24;21.00;92.10
36450;DHT22;22475;51.390;7.180;2022-07-23T11:57:53;21.00;92.10
36450;DHT22;22475;51.390;7.180;2022-07-23T12:00:21;21.00;92.10
36450;DHT22;22475;51.390;7.180;2022-07-23T12:02:51;21.00;92.10
36450;DHT22;22475;51.390;7.180;2022-07-23T12:05:20;21.00;92.20
36450;DHT22;22475;51.390;7.180;2022-07-23T12:07:49;21.00;92.20
36450;DHT22;22475;51.390;7.180;2022-07-23T12:10:17;21.00;92.20
36450;DHT22;22475;51.390;7.180;2022-07-23T12:12:46;21.00;92.20
36450;DHT22;22475;51.390;7.180;2022-07-23T12:15:16;21.00;92.20
36450;DHT22;22475;51.390;7.180;2022-07-23T12:17:44;21.00;92.20
36450;DHT22;22475;51.390;7.180;2022-07-23T12:20:15;21.00;92.20
36450;DHT22;22475;51.390;7.180;2022-07-23T12:22:44;21.00;92.20
36450;DHT22;22475;51.390;7.180;2022-07-23T12:25:12;21.00;92.20
36450;DHT22;22475;51.390;7.180;2022-07-23T12:27:41;21.00;92.20
36450;DHT22;22475;51.390;7.180;2022-07-23T12:30:24;21.00;92.20
36450;DHT22;22475;51.390;7.180;2022-07-23T12:32:53;21.00;92.20
36450;DHT22;22475;51.390;7.180;2022-07-23T12:35:23;21.00;92.20
36450;DHT22;22475;51.390;7.180;2022-07-23T12:38:00;21.00;92.20
36450;DHT22;22475;51.390;7.180;2022-07-23T12:40:30;21.00;92.50
36450;DHT22;22475;51.390;7.180;2022-07-23T12:42:59;21.00;92.10
36450;DHT22;22475;51.390;7.180;2022-07-23T12:45:28;21.00;92.10
36450;DHT22;22475;51.390;7.180;2022-07-23T12:47:59;21.00;92.10
36450;DHT22;22475;51.390;7.180;2022-07-23T12:50:42;21.00;92.20
36450;DHT22;22475;51.390;7.180;2022-07-23T12:53:14;21.00;92.20
36450;DHT22;22475;51.390;7.180;2022-07-23T12:55:41;21.00;92.20
36450;DHT22;22475;51.390;7.180;2022-07-23T12:58:11;21.00;92.20
36450;DHT22;22475;51.390;7.180;2022-07-23T13:01:02;21.00;92.20
36450;DHT22;22475;51.390;7.180;2022-07-23T13:03:32;21.00;92.10
36450;DHT22;22475;51.390;7.180;2022-07-23T13:06:02;21.00;92.10
36450;DHT22;22475;51.390;7.180;2022-07-23T13:08:30;21.00;92.10
36450;DHT22;22475;51.390;7.180;2022-07-23T13:10:58;21.00;92.00
36450;DHT22;22475;51.390;7.180;2022-07-23T13:13:26;21.00;92.00
36450;DHT22;22475;51.390;7.180;2022-07-23T13:15:53;21.00;92.00
36450;DHT22;22475;51.390;7.180;2022-07-23T13:18:20;21.00;92.10
36450;DHT22;22475;51.390;7.180;2022-07-23T13:20:48;21.00;92.10
36450;DHT22;22475;51.390;7.180;2022-07-23T13:23:17;21.00;92.10
36450;DHT22;22475;51.390;7.180;2022-07-23T13:25:45;21.00;92.10
36450;DHT22;22475;51.390;7.180;2022-07-23T13:28:12;21.00;92.10
36450;DHT22;22475;51.390;7.180;2022-07-23T13:30:40;21.00;92.10
36450;DHT22;22475;51.390;7.180;2022-07-23T13:33:07;21.00;92.10
36450;DHT22;22475;51.390;7.180;2022-07-23T13:35:35;21.00;92.10
36450;DHT22;22475;51.390;7.180;2022-07-23T13:38:03;21.00;92.10
36450;DHT22;22475;51.390;7.180;2022-07-23T13:40:31;21.00;92.10
36450;DHT22;22475;51.390;7.180;2022-07-23T13:42:58;21.00;92.10
36450;DHT22;22475;51.390;7.180;2022-07-23T13:45:25;21.00;92.10
36450;DHT22;22475;51.390;7.180;2022-07-23T13:47:52;21.00;92.10
36450;DHT22;22475;51.390;7.180;2022-07-23T13:50:19;21.00;92.10
36450;DHT22;22475;51.390;7.180;2022-07-23T13:52:46;21.00;92.10
36450;DHT22;22475;51.390;7.180;2022-07-23T13:55:13;21.00;92.10
36450;DHT22;22475;51.390;7.180;2022-07-23T13:57:41;21.00;92.20
36450;DHT22;22475;51.390;7.180;2022-07-23T14:00:10;21.10;92.20
36450;DHT22;22475;51.390;7.180;2022-07-23T14:02:38;21.00;92.20
36450;DHT22;22475;51.390;7.180;2022-07-23T14:05:06;21.00;92.20
36450;DHT22;22475;51.390;7.180;2022-07-23T14:07:34;21.00;92.20
36450;DHT22;22475;51.390;7.180;2022-07-23T14:10:01;21.00;92.20
36450;DHT22;22475;51.390;7.180;2022-07-23T14:12:28;21.00;92.20
36450;DHT22;22475;51.390;7.180;2022-07-23T14:14:56;21.00;92.20
36450;DHT22;22475;51.390;7.180;2022-07-23T14:17:23;21.00;92.20
36450;DHT22;22475;51.390;7.180;2022-07-23T14:19:53;21.00;92.20
36450;DHT22;22475;51.390;7.180;2022-07-23T14:22:20;21.00;92.20
36450;DHT22;22475;51.390;7.180;2022-07-23T14:24:46;21.00;92.20
36450;DHT22;22475;51.390;7.180;2022-07-23T14:27:13;21.00;92.20
36450;DHT22;22475;51.390;7.180;2022-07-23T14:29:40;21.00;92.20
36450;DHT22;22475;51.390;7.180;2022-07-23T14:32:09;21.10;92.20
36450;DHT22;22475;51.390;7.180;2022-07-23T14:34:36;21.10;92.20
36450;DHT22;22475;51.390;7.180;2022-07-23T14:37:03;21.10;92.20
36450;DHT22;22475;51.390;7.180;2022-07-23T14:39:29;21.10;92.20
36450;DHT22;22475;51.390;7.180;2022-07-23T14:41:57;21.00;92.20
36450;DHT22;22475;51.390;7.180;2022-07-23T14:44:24;21.10;92.40
36450;DHT22;22475;51.390;7.180;2022-07-23T14:46:51;21.10;92.50
36450;DHT22;22475;51.390;7.180;2022-07-23T14:49:19;21.10;92.50
36450;DHT22;22475;51.390;7.180;2022-07-23T14:51:46;21.10;92.50
36450;DHT22;22475;51.390;7.180;2022-07-23T14:54:13;21.10;92.50
36450;DHT22;22475;51.390;7.180;2022-07-23T14:56:40;21.10;92.50
36450;DHT22;22475;51.390;7.180;2022-07-23T14:59:07;21.10;92.80
36450;DHT22;22475;51.390;7.180;2022-07-23T15:01:34;21.10;92.50
36450;DHT22;22475;51.390;7.180;2022-07-23T15:04:02;21.10;92.50
36450;DHT22;22475;51.390;7.180;2022-07-23T15:06:30;21.10;92.50
36450;DHT22;22475;51.390;7.180;2022-07-23T15:08:57;21.10;92.50
36450;DHT22;22475;51.390;7.180;2022-07-23T15:11:25;21.10;92.50
36450;DHT22;22475;51.390;7.180;2022-07-23T15:13:52;21.10;92.60
36450;DHT22;22475;51.390;7.180;2022-07-23T15:16:19;21.10;92.60
36450;DHT22;22475;51.390;7.180;2022-07-23T15:18:46;21.10;92.60
36450;DHT22;22475;51.390;7.180;2022-07-23T15:21:13;21.10;92.60
36450;DHT22;22475;51.390;7.180;2022-07-23T15:23:41;21.10;92.60
36450;DHT22;22475;51.390;7.180;2022-07-23T15:26:08;21.10;92.60
36450;DHT22;22475;51.390;7.180;2022-07-23T15:28:35;21.10;92.60
36450;DHT22;22475;51.390;7.180;2022-07-23T15:31:04;21.10;92.60
36450;DHT22;22475;51.390;7.180;2022-07-23T15:33:31;21.10;92.60
36450;DHT22;22475;51.390;7.180;2022-07-23T15:35:58;21.10;92.60
36450;DHT22;22475;51.390;7.180;2022-07-23T15:38:25;21.10;92.60